createdAt,value
2016-11-08T00:00:00.929Z,994.87
2016-11-08T00:00:22.649Z,994.88
2016-11-08T00:00:44.368Z,994.80
2016-11-08T00:01:06.095Z,994.86
2016-11-08T00:01:27.818Z,994.96
2016-11-08T00:01:49.534Z,994.95
2016-11-08T00:02:11.261Z,994.92
2016-11-08T00:02:32.999Z,994.85
2016-11-08T00:02:54.719Z,994.85
2016-11-08T00:03:16.449Z,994.84
2016-11-08T00:03:38.185Z,994.78
2016-11-08T00:03:59.908Z,994.85
2016-11-08T00:04:21.642Z,994.79
2016-11-08T00:04:43.358Z,994.79
2016-11-08T00:05:05.085Z,994.76
2016-11-08T00:05:26.810Z,994.85
2016-11-08T00:05:48.537Z,994.80
2016-11-08T00:06:10.254Z,994.78
2016-11-08T00:06:31.972Z,994.84
2016-11-08T00:06:53.707Z,994.90
2016-11-08T00:07:15.439Z,994.80
2016-11-08T00:07:37.162Z,994.81
2016-11-08T00:07:58.889Z,994.80
2016-11-08T00:08:20.607Z,994.83
2016-11-08T00:08:42.343Z,994.81
2016-11-08T00:09:04.071Z,994.85
2016-11-08T00:09:25.794Z,994.91
2016-11-08T00:09:47.518Z,994.96
2016-11-08T00:10:09.238Z,994.83
2016-11-08T00:10:30.964Z,994.81
2016-11-08T00:10:52.683Z,994.84
2016-11-08T00:11:14.419Z,994.79
2016-11-08T00:11:36.153Z,994.92
2016-11-08T00:11:57.877Z,994.86
2016-11-08T00:12:19.593Z,994.81
2016-11-08T00:12:41.317Z,994.76
2016-11-08T00:13:03.045Z,994.84
2016-11-08T00:13:24.774Z,994.79
2016-11-08T00:13:46.496Z,994.76
2016-11-08T00:14:10.767Z,994.78
2016-11-08T00:14:32.493Z,994.84
2016-11-08T00:14:54.220Z,994.83
2016-11-08T00:15:15.953Z,994.83
2016-11-08T00:15:37.821Z,994.78
2016-11-08T00:15:59.543Z,994.77
2016-11-08T00:16:21.262Z,994.84
2016-11-08T00:16:42.984Z,994.89
2016-11-08T00:17:04.703Z,994.81
2016-11-08T00:17:26.421Z,994.79
2016-11-08T00:17:48.164Z,994.88
2016-11-08T00:18:09.893Z,994.75
2016-11-08T00:18:31.620Z,994.75
2016-11-08T00:18:53.347Z,994.69
2016-11-08T00:19:15.067Z,994.81
2016-11-08T00:19:36.800Z,994.73
2016-11-08T00:19:58.628Z,994.75
2016-11-08T00:20:20.345Z,994.74
2016-11-08T00:20:42.075Z,994.68
2016-11-08T00:21:03.818Z,994.77
2016-11-08T00:21:25.547Z,994.76
2016-11-08T00:21:47.271Z,994.75
2016-11-08T00:22:08.993Z,994.82
2016-11-08T00:22:30.736Z,994.71
2016-11-08T00:22:52.468Z,994.72
2016-11-08T00:23:14.189Z,994.71
2016-11-08T00:23:35.918Z,994.74
2016-11-08T00:23:57.636Z,994.73
2016-11-08T00:24:19.364Z,994.77
2016-11-08T00:24:41.220Z,994.66
2016-11-08T00:25:02.979Z,994.78
2016-11-08T00:25:24.703Z,994.74
2016-11-08T00:25:46.433Z,994.63
2016-11-08T00:26:08.165Z,994.72
2016-11-08T00:26:29.886Z,994.79
2016-11-08T00:26:51.604Z,994.69
2016-11-08T00:27:13.337Z,994.71
2016-11-08T00:27:35.094Z,994.75
2016-11-08T00:27:56.838Z,994.71
2016-11-08T00:28:18.568Z,994.71
2016-11-08T00:28:40.301Z,994.68
2016-11-08T00:29:02.025Z,994.74
2016-11-08T00:29:23.756Z,994.69
2016-11-08T00:29:45.477Z,994.69
2016-11-08T00:30:07.197Z,994.64
2016-11-08T00:30:28.927Z,994.84
2016-11-08T00:30:50.658Z,994.85
2016-11-08T00:31:12.399Z,994.72
2016-11-08T00:31:34.125Z,994.72
2016-11-08T00:31:55.845Z,994.74
2016-11-08T00:32:17.563Z,994.64
2016-11-08T00:32:39.280Z,994.63
2016-11-08T00:33:01.012Z,994.73
2016-11-08T00:33:22.749Z,994.70
2016-11-08T00:33:44.470Z,994.66
2016-11-08T00:34:06.200Z,994.71
2016-11-08T00:34:27.913Z,994.67
2016-11-08T00:34:49.634Z,994.66
2016-11-08T00:35:11.358Z,994.77
2016-11-08T00:35:33.083Z,994.68
2016-11-08T00:35:54.816Z,994.62
2016-11-08T00:36:16.532Z,994.69
2016-11-08T00:36:38.252Z,994.59
2016-11-08T00:36:59.985Z,994.64
2016-11-08T00:37:21.710Z,994.69
2016-11-08T00:37:43.438Z,994.66
2016-11-08T00:38:05.157Z,994.68
2016-11-08T00:38:26.892Z,994.64
2016-11-08T00:38:48.611Z,994.64
2016-11-08T00:39:10.332Z,994.59
2016-11-08T00:39:32.140Z,994.65
2016-11-08T00:39:53.855Z,994.62
2016-11-08T00:40:15.572Z,994.72
2016-11-08T00:40:37.292Z,994.69
2016-11-08T00:40:59.034Z,994.61
2016-11-08T00:41:20.761Z,994.67
2016-11-08T00:41:42.478Z,994.62
2016-11-08T00:42:04.201Z,994.69
2016-11-08T00:42:25.926Z,994.69
2016-11-08T00:42:47.646Z,994.64
2016-11-08T00:43:09.375Z,994.71
2016-11-08T00:43:31.090Z,994.72
2016-11-08T00:43:52.817Z,994.80
2016-11-08T00:44:14.540Z,994.72
2016-11-08T00:44:36.255Z,994.65
2016-11-08T00:44:57.996Z,994.63
2016-11-08T00:45:19.704Z,994.70
2016-11-08T00:45:41.431Z,994.69
2016-11-08T00:46:03.155Z,994.66
2016-11-08T00:46:24.883Z,994.70
2016-11-08T00:46:46.616Z,994.69
2016-11-08T00:47:08.337Z,994.62
2016-11-08T00:47:30.053Z,994.68
2016-11-08T00:47:51.773Z,994.65
2016-11-08T00:48:13.508Z,994.67
2016-11-08T00:48:35.252Z,994.66
2016-11-08T00:48:56.984Z,994.74
2016-11-08T00:49:18.842Z,994.69
2016-11-08T00:49:40.568Z,994.68
2016-11-08T00:50:02.312Z,994.63
2016-11-08T00:50:24.045Z,994.65
2016-11-08T00:50:45.780Z,994.63
2016-11-08T00:51:07.515Z,994.69
2016-11-08T00:51:29.244Z,994.72
2016-11-08T00:51:50.974Z,994.64
2016-11-08T00:52:12.706Z,994.64
2016-11-08T00:52:39.193Z,994.66
2016-11-08T00:53:00.909Z,994.64
2016-11-08T00:53:22.626Z,994.61
2016-11-08T00:53:44.355Z,994.65
2016-11-08T00:54:06.077Z,994.65
2016-11-08T00:54:27.794Z,994.68
2016-11-08T00:54:49.522Z,994.67
2016-11-08T00:55:11.244Z,994.73
2016-11-08T00:55:32.973Z,994.81
2016-11-08T00:55:54.694Z,994.76
2016-11-08T00:56:16.435Z,994.64
2016-11-08T00:56:38.153Z,994.69
2016-11-08T00:56:59.877Z,994.72
2016-11-08T00:57:21.604Z,994.67
2016-11-08T00:57:43.327Z,994.60
2016-11-08T00:58:05.081Z,994.72
2016-11-08T00:58:26.814Z,994.67
2016-11-08T00:58:48.537Z,994.69
2016-11-08T00:59:10.254Z,994.76
2016-11-08T00:59:31.995Z,994.81
2016-11-08T00:59:53.713Z,994.72
2016-11-08T01:00:15.453Z,994.71
2016-11-08T01:00:37.183Z,994.69
2016-11-08T01:00:58.903Z,994.69
2016-11-08T01:01:20.619Z,994.69
2016-11-08T01:01:42.343Z,994.74
2016-11-08T01:02:04.062Z,994.75
2016-11-08T01:02:25.783Z,994.71
2016-11-08T01:02:47.501Z,994.58
2016-11-08T01:03:09.220Z,994.75
2016-11-08T01:03:30.943Z,994.68
2016-11-08T01:03:52.660Z,994.66
2016-11-08T01:04:14.379Z,994.72
2016-11-08T01:04:36.104Z,994.70
2016-11-08T01:04:57.829Z,994.68
2016-11-08T01:05:19.552Z,994.70
2016-11-08T01:05:41.273Z,994.76
2016-11-08T01:06:02.999Z,994.76
2016-11-08T01:06:24.723Z,994.68
2016-11-08T01:06:46.461Z,994.67
2016-11-08T01:07:08.185Z,994.70
2016-11-08T01:07:29.903Z,994.81
2016-11-08T01:07:51.620Z,994.70
2016-11-08T01:08:13.356Z,994.73
2016-11-08T01:08:35.075Z,994.69
2016-11-08T01:08:56.795Z,994.64
2016-11-08T01:09:18.515Z,994.75
2016-11-08T01:09:40.316Z,994.74
2016-11-08T01:10:02.038Z,994.73
2016-11-08T01:10:23.757Z,994.68
2016-11-08T01:10:45.473Z,994.72
2016-11-08T01:11:07.196Z,994.74
2016-11-08T01:11:28.929Z,994.68
2016-11-08T01:11:50.660Z,994.72
2016-11-08T01:12:12.385Z,994.67
2016-11-08T01:12:34.123Z,994.72
2016-11-08T01:12:55.839Z,994.72
2016-11-08T01:13:17.562Z,994.72
2016-11-08T01:13:39.287Z,994.69
2016-11-08T01:14:01.130Z,994.77
2016-11-08T01:14:22.863Z,994.73
2016-11-08T01:14:44.591Z,994.69
2016-11-08T01:15:06.316Z,994.72
2016-11-08T01:15:28.044Z,994.63
2016-11-08T01:15:49.856Z,994.68
2016-11-08T01:16:11.566Z,994.77
2016-11-08T01:16:33.290Z,994.75
2016-11-08T01:16:55.014Z,994.70
2016-11-08T01:17:16.742Z,994.64
2016-11-08T01:17:38.466Z,994.64
2016-11-08T01:18:00.203Z,994.75
2016-11-08T01:18:21.947Z,994.75
2016-11-08T01:18:43.686Z,994.66
2016-11-08T01:19:05.471Z,994.80
2016-11-08T01:19:27.188Z,994.76
2016-11-08T01:19:48.917Z,994.72
2016-11-08T01:20:10.637Z,994.73
2016-11-08T01:20:32.369Z,994.74
2016-11-08T01:20:54.089Z,994.77
2016-11-08T01:21:15.808Z,994.77
2016-11-08T01:21:37.529Z,994.71
2016-11-08T01:21:59.257Z,994.79
2016-11-08T01:22:20.980Z,994.66
2016-11-08T01:22:42.708Z,994.62
2016-11-08T01:23:04.433Z,994.70
2016-11-08T01:23:26.188Z,994.73
2016-11-08T01:23:47.906Z,994.75
2016-11-08T01:24:09.627Z,994.71
2016-11-08T01:24:31.357Z,994.65
2016-11-08T01:24:53.080Z,994.68
2016-11-08T01:25:14.808Z,994.68
2016-11-08T01:25:36.546Z,994.74
2016-11-08T01:25:58.276Z,994.62
2016-11-08T01:26:19.992Z,994.60
2016-11-08T01:26:41.712Z,994.67
2016-11-08T01:27:03.433Z,994.71
2016-11-08T01:27:25.161Z,994.67
2016-11-08T01:27:46.889Z,994.69
2016-11-08T01:28:08.608Z,994.72
2016-11-08T01:28:30.325Z,994.66
2016-11-08T01:28:52.054Z,994.61
2016-11-08T01:29:13.773Z,994.63
2016-11-08T01:29:35.493Z,994.57
2016-11-08T01:29:57.215Z,994.60
2016-11-08T01:30:18.962Z,994.64
2016-11-08T01:30:40.681Z,994.57
2016-11-08T01:31:02.402Z,994.65
2016-11-08T01:31:24.120Z,994.64
2016-11-08T01:31:45.848Z,994.63
2016-11-08T01:32:07.568Z,994.59
2016-11-08T01:32:29.285Z,994.56
2016-11-08T01:32:51.004Z,994.60
2016-11-08T01:33:12.724Z,994.65
2016-11-08T01:33:34.445Z,994.63
2016-11-08T01:33:56.164Z,994.68
2016-11-08T01:34:17.900Z,994.66
2016-11-08T01:34:39.628Z,994.67
2016-11-08T01:35:01.369Z,994.69
2016-11-08T01:35:23.092Z,994.57
2016-11-08T01:35:44.813Z,994.61
2016-11-08T01:36:06.530Z,994.60
2016-11-08T01:36:28.250Z,994.62
2016-11-08T01:36:49.981Z,994.60
2016-11-08T01:37:11.709Z,994.60
2016-11-08T01:37:33.444Z,994.53
2016-11-08T01:37:55.159Z,994.60
2016-11-08T01:38:16.931Z,994.58
2016-11-08T01:38:38.670Z,994.62
2016-11-08T01:39:00.396Z,994.57
2016-11-08T01:39:22.120Z,994.61
2016-11-08T01:39:43.845Z,994.60
2016-11-08T01:40:05.566Z,994.68
2016-11-08T01:40:27.285Z,994.67
2016-11-08T01:40:49.014Z,994.62
2016-11-08T01:41:10.731Z,994.70
2016-11-08T01:41:32.476Z,994.58
2016-11-08T01:41:54.169Z,994.59
2016-11-08T01:42:15.884Z,994.52
2016-11-08T01:42:37.608Z,994.63
2016-11-08T01:42:59.326Z,994.60
2016-11-08T01:43:21.050Z,994.61
2016-11-08T01:43:42.765Z,994.67
2016-11-08T01:44:04.498Z,994.58
2016-11-08T01:44:26.214Z,994.55
2016-11-08T01:44:47.942Z,994.62
2016-11-08T01:45:09.669Z,994.62
2016-11-08T01:45:31.393Z,994.66
2016-11-08T01:45:53.110Z,994.59
2016-11-08T01:46:14.828Z,994.62
2016-11-08T01:46:36.549Z,994.59
2016-11-08T01:46:58.272Z,994.56
2016-11-08T01:47:20.065Z,994.57
2016-11-08T01:47:41.771Z,994.57
2016-11-08T01:48:03.491Z,994.52
2016-11-08T01:48:25.209Z,994.61
2016-11-08T01:48:46.934Z,994.60
2016-11-08T01:49:08.656Z,994.61
2016-11-08T01:49:30.389Z,994.56
2016-11-08T01:49:52.108Z,994.65
2016-11-08T01:50:13.825Z,994.47
2016-11-08T01:50:35.553Z,994.49
2016-11-08T01:50:57.284Z,994.58
2016-11-08T01:51:19.004Z,994.49
2016-11-08T01:51:40.725Z,994.47
2016-11-08T01:52:02.443Z,994.48
2016-11-08T01:52:24.161Z,994.45
2016-11-08T01:52:45.888Z,994.46
2016-11-08T01:53:07.608Z,994.54
2016-11-08T01:53:29.319Z,994.57
2016-11-08T01:53:51.052Z,994.56
2016-11-08T01:54:12.805Z,994.45
2016-11-08T01:54:34.540Z,994.54
2016-11-08T01:54:56.285Z,994.54
2016-11-08T01:55:17.989Z,994.53
2016-11-08T01:55:39.709Z,994.52
2016-11-08T01:56:01.436Z,994.57
2016-11-08T01:56:23.164Z,994.47
2016-11-08T01:56:44.883Z,994.45
2016-11-08T01:57:06.636Z,994.45
2016-11-08T01:57:28.357Z,994.43
2016-11-08T01:57:50.183Z,994.52
2016-11-08T01:58:11.904Z,994.50
2016-11-08T01:58:33.624Z,994.54
2016-11-08T01:58:55.345Z,994.47
2016-11-08T01:59:17.081Z,994.47
2016-11-08T01:59:38.809Z,994.43
2016-11-08T02:00:00.537Z,994.58
2016-11-08T02:00:22.253Z,994.46
2016-11-08T02:00:43.979Z,994.44
2016-11-08T02:01:05.705Z,994.52
2016-11-08T02:01:27.426Z,994.43
2016-11-08T02:01:49.143Z,994.44
2016-11-08T02:02:10.866Z,994.51
2016-11-08T02:02:32.635Z,994.53
2016-11-08T02:02:54.362Z,994.37
2016-11-08T02:03:16.090Z,994.44
2016-11-08T02:03:37.911Z,994.47
2016-11-08T02:03:59.625Z,994.48
2016-11-08T02:04:21.343Z,994.44
2016-11-08T02:04:43.062Z,994.43
2016-11-08T02:05:04.782Z,994.51
2016-11-08T02:05:26.520Z,994.52
2016-11-08T02:05:48.223Z,994.46
2016-11-08T02:06:09.952Z,994.36
2016-11-08T02:06:31.671Z,994.37
2016-11-08T02:06:53.699Z,994.40
2016-11-08T02:07:15.418Z,994.41
2016-11-08T02:07:37.134Z,994.44
2016-11-08T02:07:58.860Z,994.51
2016-11-08T02:08:20.579Z,994.40
2016-11-08T02:08:42.298Z,994.48
2016-11-08T02:09:04.051Z,994.40
2016-11-08T02:09:25.751Z,994.39
2016-11-08T02:09:47.521Z,994.46
2016-11-08T02:10:11.653Z,994.38
2016-11-08T02:10:33.477Z,994.42
2016-11-08T02:10:55.214Z,994.36
2016-11-08T02:11:16.931Z,994.37
2016-11-08T02:11:38.648Z,994.42
2016-11-08T02:12:00.372Z,994.39
2016-11-08T02:12:22.107Z,994.42
2016-11-08T02:12:43.815Z,994.38
2016-11-08T02:13:05.531Z,994.41
2016-11-08T02:13:27.251Z,994.34
2016-11-08T02:13:48.994Z,994.33
2016-11-08T02:14:10.710Z,994.38
2016-11-08T02:14:32.433Z,994.34
2016-11-08T02:14:54.155Z,994.31
2016-11-08T02:15:15.875Z,994.39
2016-11-08T02:15:37.612Z,994.34
2016-11-08T02:15:59.328Z,994.36
2016-11-08T02:16:21.049Z,994.44
2016-11-08T02:16:42.774Z,994.44
2016-11-08T02:17:04.492Z,994.30
2016-11-08T02:17:26.212Z,994.31
2016-11-08T02:17:47.935Z,994.28
2016-11-08T02:18:09.651Z,994.36
2016-11-08T02:18:31.381Z,994.36
2016-11-08T02:18:53.121Z,994.45
2016-11-08T02:19:14.839Z,994.32
2016-11-08T02:19:36.577Z,994.29
2016-11-08T02:19:58.309Z,994.37
2016-11-08T02:20:20.042Z,994.30
2016-11-08T02:20:41.765Z,994.40
2016-11-08T02:21:03.496Z,994.31
2016-11-08T02:21:25.209Z,994.39
2016-11-08T02:21:46.936Z,994.35
2016-11-08T02:22:08.658Z,994.41
2016-11-08T02:22:30.378Z,994.30
2016-11-08T02:22:52.102Z,994.36
2016-11-08T02:23:13.819Z,994.38
2016-11-08T02:23:35.545Z,994.39
2016-11-08T02:23:57.267Z,994.36
2016-11-08T02:24:19.005Z,994.39
2016-11-08T02:24:40.734Z,994.36
2016-11-08T02:25:02.455Z,994.37
2016-11-08T02:25:24.187Z,994.27
2016-11-08T02:25:45.909Z,994.35
2016-11-08T02:26:07.629Z,994.32
2016-11-08T02:26:29.350Z,994.35
2016-11-08T02:26:51.079Z,994.29
2016-11-08T02:27:24.410Z,994.29
2016-11-08T02:27:46.139Z,994.27
2016-11-08T02:28:07.856Z,994.36
2016-11-08T02:28:29.585Z,994.34
2016-11-08T02:28:51.309Z,994.32
2016-11-08T02:29:13.031Z,994.37
2016-11-08T02:29:34.753Z,994.28
2016-11-08T02:29:56.484Z,994.31
2016-11-08T02:30:18.202Z,994.49
2016-11-08T02:30:39.922Z,994.41
2016-11-08T02:31:01.650Z,994.38
2016-11-08T02:31:23.366Z,994.33
2016-11-08T02:31:45.094Z,994.33
2016-11-08T02:32:06.821Z,994.35
2016-11-08T02:32:28.537Z,994.25
2016-11-08T02:32:50.262Z,994.41
2016-11-08T02:33:11.982Z,994.39
2016-11-08T02:33:33.707Z,994.34
2016-11-08T02:33:55.441Z,994.21
2016-11-08T02:34:17.179Z,994.28
2016-11-08T02:34:38.928Z,994.39
2016-11-08T02:35:00.663Z,994.31
2016-11-08T02:35:22.399Z,994.44
2016-11-08T02:35:44.115Z,994.32
2016-11-08T02:36:05.837Z,994.44
2016-11-08T02:36:27.561Z,994.36
2016-11-08T02:36:49.285Z,994.28
2016-11-08T02:37:11.036Z,994.22
2016-11-08T02:37:32.759Z,994.35
2016-11-08T02:37:54.480Z,994.32
2016-11-08T02:38:16.200Z,994.30
2016-11-08T02:38:37.924Z,994.31
2016-11-08T02:38:59.643Z,994.24
2016-11-08T02:39:21.363Z,994.28
2016-11-08T02:39:43.100Z,994.27
2016-11-08T02:40:04.819Z,994.28
2016-11-08T02:40:26.542Z,994.38
2016-11-08T02:40:48.267Z,994.29
2016-11-08T02:41:09.988Z,994.28
2016-11-08T02:41:31.705Z,994.27
2016-11-08T02:41:53.430Z,994.23
2016-11-08T02:42:15.161Z,994.31
2016-11-08T02:42:36.884Z,994.31
2016-11-08T02:42:58.623Z,994.30
2016-11-08T02:43:20.338Z,994.18
2016-11-08T02:43:42.072Z,994.20
2016-11-08T02:44:03.787Z,994.18
2016-11-08T02:44:25.517Z,994.20
2016-11-08T02:44:47.237Z,994.23
2016-11-08T02:45:08.957Z,994.30
2016-11-08T02:45:30.690Z,994.26
2016-11-08T02:45:52.409Z,994.28
2016-11-08T02:46:14.148Z,994.28
2016-11-08T02:46:35.874Z,994.25
2016-11-08T02:46:57.613Z,994.17
2016-11-08T02:47:19.353Z,994.27
2016-11-08T02:47:41.076Z,994.32
2016-11-08T02:48:02.820Z,994.21
2016-11-08T02:48:24.530Z,994.22
2016-11-08T02:48:46.251Z,994.22
2016-11-08T02:49:10.944Z,994.31
2016-11-08T02:49:41.729Z,994.18
2016-11-08T02:50:42.971Z,994.31
2016-11-08T02:51:37.507Z,994.27
2016-11-08T02:51:59.237Z,994.30
2016-11-08T02:52:21.071Z,994.13
2016-11-08T02:52:42.801Z,994.22
2016-11-08T02:53:04.520Z,994.27
2016-11-08T02:53:26.248Z,994.23
2016-11-08T02:53:47.965Z,994.15
2016-11-08T02:54:09.685Z,994.30
2016-11-08T02:54:31.411Z,994.17
2016-11-08T02:54:53.132Z,994.17
2016-11-08T02:55:14.862Z,994.15
2016-11-08T02:55:36.584Z,994.21
2016-11-08T02:55:58.305Z,994.18
2016-11-08T02:56:20.026Z,994.18
2016-11-08T02:56:41.764Z,994.21
2016-11-08T02:57:03.593Z,994.19
2016-11-08T02:57:25.319Z,994.13
2016-11-08T02:57:47.051Z,994.21
2016-11-08T02:58:08.770Z,994.27
2016-11-08T02:58:30.491Z,994.18
2016-11-08T02:58:52.209Z,994.24
2016-11-08T02:59:13.948Z,994.33
2016-11-08T02:59:35.679Z,994.32
2016-11-08T03:00:00.320Z,994.17
2016-11-08T03:00:22.040Z,994.18
2016-11-08T03:00:43.767Z,994.14
2016-11-08T03:01:05.496Z,994.08
2016-11-08T03:01:27.236Z,994.16
2016-11-08T03:01:48.957Z,994.27
2016-11-08T03:02:10.679Z,994.31
2016-11-08T03:02:32.403Z,994.18
2016-11-08T03:02:54.128Z,994.19
2016-11-08T03:03:15.873Z,994.26
2016-11-08T03:03:37.592Z,994.25
2016-11-08T03:03:59.311Z,994.22
2016-11-08T03:04:21.050Z,994.27
2016-11-08T03:04:42.767Z,994.32
2016-11-08T03:05:04.492Z,994.20
2016-11-08T03:05:26.236Z,994.25
2016-11-08T03:05:47.966Z,994.25
2016-11-08T03:06:09.683Z,994.36
2016-11-08T03:06:31.419Z,994.11
2016-11-08T03:06:53.153Z,994.21
2016-11-08T03:07:15.117Z,994.23
2016-11-08T03:07:36.835Z,994.23
2016-11-08T03:07:58.560Z,994.17
2016-11-08T03:08:20.281Z,994.33
2016-11-08T03:08:42.001Z,994.29
2016-11-08T03:09:03.726Z,994.26
2016-11-08T03:09:25.447Z,994.19
2016-11-08T03:09:47.168Z,994.22
2016-11-08T03:10:08.892Z,994.38
2016-11-08T03:10:32.823Z,994.21
2016-11-08T03:10:54.547Z,994.24
2016-11-08T03:11:16.291Z,994.33
2016-11-08T03:11:38.013Z,994.27
2016-11-08T03:11:59.741Z,994.40
2016-11-08T03:12:21.469Z,994.32
2016-11-08T03:12:43.193Z,994.23
2016-11-08T03:13:04.920Z,994.27
2016-11-08T03:13:26.643Z,994.39
2016-11-08T03:13:48.377Z,994.25
2016-11-08T03:14:10.108Z,994.21
2016-11-08T03:14:31.832Z,994.26
2016-11-08T03:14:53.567Z,994.30
2016-11-08T03:15:15.288Z,994.24
2016-11-08T03:15:37.011Z,994.35
2016-11-08T03:15:58.742Z,994.38
2016-11-08T03:16:20.462Z,994.27
2016-11-08T03:16:42.181Z,994.27
2016-11-08T03:17:03.906Z,994.28
2016-11-08T03:17:25.626Z,994.39
2016-11-08T03:17:47.348Z,994.28
2016-11-08T03:18:09.081Z,994.27
2016-11-08T03:18:30.810Z,994.21
2016-11-08T03:18:52.532Z,994.25
2016-11-08T03:19:14.251Z,994.36
2016-11-08T03:19:35.969Z,994.34
2016-11-08T03:19:57.693Z,994.34
2016-11-08T03:20:19.413Z,994.36
2016-11-08T03:20:41.137Z,994.25
2016-11-08T03:21:02.921Z,994.33
2016-11-08T03:21:24.641Z,994.27
2016-11-08T03:21:46.371Z,994.32
2016-11-08T03:22:08.091Z,994.38
2016-11-08T03:22:29.812Z,994.33
2016-11-08T03:22:51.567Z,994.23
2016-11-08T03:23:13.281Z,994.31
2016-11-08T03:23:35.002Z,994.24
2016-11-08T03:23:56.736Z,994.25
2016-11-08T03:24:18.458Z,994.28
2016-11-08T03:24:40.173Z,994.43
2016-11-08T03:25:01.893Z,994.19
2016-11-08T03:25:23.609Z,994.31
2016-11-08T03:25:45.332Z,994.39
2016-11-08T03:26:07.051Z,994.36
2016-11-08T03:26:28.771Z,994.28
2016-11-08T03:26:50.495Z,994.41
2016-11-08T03:27:12.226Z,994.34
2016-11-08T03:27:33.942Z,994.33
2016-11-08T03:27:55.683Z,994.29
2016-11-08T03:28:17.405Z,994.27
2016-11-08T03:28:39.125Z,994.33
2016-11-08T03:29:00.847Z,994.35
2016-11-08T03:29:22.568Z,994.38
2016-11-08T03:29:44.287Z,994.42
2016-11-08T03:30:06.009Z,994.16
2016-11-08T03:30:27.735Z,994.29
2016-11-08T03:30:49.457Z,994.31
2016-11-08T03:31:11.174Z,994.34
2016-11-08T03:31:32.898Z,994.41
2016-11-08T03:31:54.630Z,994.34
2016-11-08T03:32:16.352Z,994.33
2016-11-08T03:32:38.074Z,994.34
2016-11-08T03:32:59.803Z,994.17
2016-11-08T03:33:21.557Z,994.44
2016-11-08T03:33:43.279Z,994.46
2016-11-08T03:34:04.998Z,994.42
2016-11-08T03:34:26.732Z,994.34
2016-11-08T03:34:48.455Z,994.25
2016-11-08T03:35:10.185Z,994.33
2016-11-08T03:35:31.908Z,994.24
2016-11-08T03:35:53.634Z,994.21
2016-11-08T03:36:15.354Z,994.39
2016-11-08T03:36:37.075Z,994.35
2016-11-08T03:36:58.793Z,994.26
2016-11-08T03:37:20.527Z,994.23
2016-11-08T03:37:42.255Z,994.30
2016-11-08T03:38:03.984Z,994.36
2016-11-08T03:38:25.698Z,994.26
2016-11-08T03:38:47.431Z,994.28
2016-11-08T03:39:09.157Z,994.20
2016-11-08T03:39:30.877Z,994.27
2016-11-08T03:39:52.598Z,994.39
2016-11-08T03:40:14.325Z,994.40
2016-11-08T03:40:36.055Z,994.32
2016-11-08T03:40:57.790Z,994.15
2016-11-08T03:41:19.514Z,994.33
2016-11-08T03:41:41.234Z,994.41
2016-11-08T03:42:02.959Z,994.34
2016-11-08T03:42:24.693Z,994.32
2016-11-08T03:42:46.413Z,994.41
2016-11-08T03:43:08.141Z,994.35
2016-11-08T03:43:29.859Z,994.21
2016-11-08T03:43:51.584Z,994.40
2016-11-08T03:44:13.326Z,994.36
2016-11-08T03:44:35.046Z,994.27
2016-11-08T03:44:56.770Z,994.26
2016-11-08T03:45:18.490Z,994.32
2016-11-08T03:45:40.220Z,994.38
2016-11-08T03:46:01.955Z,994.35
2016-11-08T03:46:23.674Z,994.34
2016-11-08T03:46:45.402Z,994.28
2016-11-08T03:47:07.131Z,994.33
2016-11-08T03:47:28.848Z,994.34
2016-11-08T03:47:50.573Z,994.34
2016-11-08T03:48:12.296Z,994.24
2016-11-08T03:48:34.160Z,994.25
2016-11-08T03:48:55.882Z,994.28
2016-11-08T03:49:17.630Z,994.36
2016-11-08T03:49:39.357Z,994.37
2016-11-08T03:50:01.076Z,994.33
2016-11-08T03:50:22.794Z,994.41
2016-11-08T03:50:44.514Z,994.35
2016-11-08T03:51:06.266Z,994.30
2016-11-08T03:51:27.968Z,994.27
2016-11-08T03:51:49.713Z,994.37
2016-11-08T03:52:11.421Z,994.34
2016-11-08T03:52:33.142Z,994.36
2016-11-08T03:52:54.860Z,994.44
2016-11-08T03:53:16.707Z,994.40
2016-11-08T03:53:38.436Z,994.30
2016-11-08T03:54:00.171Z,994.36
2016-11-08T03:54:21.912Z,994.41
2016-11-08T03:54:43.648Z,994.24
2016-11-08T03:55:05.378Z,994.30
2016-11-08T03:55:27.102Z,994.36
2016-11-08T03:55:48.829Z,994.29
2016-11-08T03:56:10.562Z,994.22
2016-11-08T03:56:32.302Z,994.29
2016-11-08T03:56:54.035Z,994.31
2016-11-08T03:57:15.753Z,994.34
2016-11-08T03:57:37.487Z,994.37
2016-11-08T03:57:59.231Z,994.35
2016-11-08T03:58:20.950Z,994.26
2016-11-08T03:58:42.671Z,994.33
2016-11-08T03:59:04.399Z,994.39
2016-11-08T03:59:26.129Z,994.32
2016-11-08T03:59:47.850Z,994.22
2016-11-08T04:00:09.579Z,994.31
2016-11-08T04:00:31.303Z,994.27
2016-11-08T04:00:53.165Z,994.28
2016-11-08T04:01:14.887Z,994.24
2016-11-08T04:01:36.606Z,994.30
2016-11-08T04:01:58.328Z,994.36
2016-11-08T04:02:20.050Z,994.28
2016-11-08T04:02:41.775Z,994.27
2016-11-08T04:03:03.498Z,994.31
2016-11-08T04:03:25.215Z,994.33
2016-11-08T04:03:46.936Z,994.32
2016-11-08T04:04:08.670Z,994.34
2016-11-08T04:04:30.413Z,994.34
2016-11-08T04:04:52.141Z,994.21
2016-11-08T04:05:13.867Z,994.26
2016-11-08T04:05:35.603Z,994.29
2016-11-08T04:05:57.321Z,994.24
2016-11-08T04:06:19.042Z,994.24
2016-11-08T04:06:40.767Z,994.29
2016-11-08T04:07:02.478Z,994.33
2016-11-08T04:07:24.198Z,994.35
2016-11-08T04:07:45.915Z,994.31
2016-11-08T04:08:07.640Z,994.22
2016-11-08T04:08:29.357Z,994.19
2016-11-08T04:08:51.076Z,994.26
2016-11-08T04:09:12.817Z,994.25
2016-11-08T04:09:34.539Z,994.35
2016-11-08T04:09:56.271Z,994.31
2016-11-08T04:10:17.983Z,994.32
2016-11-08T04:10:39.707Z,994.36
2016-11-08T04:11:01.425Z,994.32
2016-11-08T04:11:23.146Z,994.26
2016-11-08T04:11:44.867Z,994.22
2016-11-08T04:12:06.592Z,994.27
2016-11-08T04:12:28.323Z,994.22
2016-11-08T04:12:50.047Z,994.23
2016-11-08T04:13:11.767Z,994.21
2016-11-08T04:13:33.495Z,994.26
2016-11-08T04:13:55.216Z,994.30
2016-11-08T04:14:16.944Z,994.34
2016-11-08T04:14:38.661Z,994.39
2016-11-08T04:15:00.387Z,994.42
2016-11-08T04:15:22.105Z,994.23
2016-11-08T04:15:43.837Z,994.21
2016-11-08T04:16:05.564Z,994.37
2016-11-08T04:16:27.286Z,994.39
2016-11-08T04:16:49.008Z,994.33
2016-11-08T04:17:10.729Z,994.36
2016-11-08T04:17:32.451Z,994.33
2016-11-08T04:17:54.170Z,994.32
2016-11-08T04:18:15.889Z,994.22
2016-11-08T04:18:37.624Z,994.34
2016-11-08T04:18:59.474Z,994.32
2016-11-08T04:19:21.253Z,994.32
2016-11-08T04:19:42.975Z,994.31
2016-11-08T04:20:04.693Z,994.31
2016-11-08T04:20:26.411Z,994.23
2016-11-08T04:20:48.134Z,994.34
2016-11-08T04:21:09.865Z,994.46
2016-11-08T04:21:31.602Z,994.29
2016-11-08T04:21:53.329Z,994.27
2016-11-08T04:22:15.051Z,994.34
2016-11-08T04:22:41.545Z,994.35
2016-11-08T04:23:03.272Z,994.28
2016-11-08T04:23:24.998Z,994.25
2016-11-08T04:23:46.918Z,994.37
2016-11-08T04:24:08.638Z,994.22
2016-11-08T04:24:30.372Z,994.28
2016-11-08T04:24:52.081Z,994.24
2016-11-08T04:25:13.810Z,994.26
2016-11-08T04:25:35.528Z,994.28
2016-11-08T04:25:57.250Z,994.42
2016-11-08T04:26:18.979Z,994.32
2016-11-08T04:26:40.726Z,994.31
2016-11-08T04:27:02.445Z,994.17
2016-11-08T04:27:24.172Z,994.27
2016-11-08T04:27:45.893Z,994.14
2016-11-08T04:28:08.625Z,994.23
2016-11-08T04:28:30.339Z,994.26
2016-11-08T04:28:52.081Z,994.26
2016-11-08T04:29:13.812Z,994.22
2016-11-08T04:29:35.536Z,994.16
2016-11-08T04:29:57.255Z,994.11
2016-11-08T04:30:18.974Z,994.10
2016-11-08T04:30:40.692Z,994.37
2016-11-08T04:31:02.408Z,994.25
2016-11-08T04:31:24.140Z,994.18
2016-11-08T04:31:45.871Z,994.21
2016-11-08T04:32:07.675Z,994.20
2016-11-08T04:32:29.407Z,994.23
2016-11-08T04:32:51.127Z,994.19